RYR7TK LIPH-EGBB
Flight info
| Callsign | RYR7TK |
|---|---|
| Flight time | 1h 50m |
| Altitude | 38000 |
| Route | ROKIB DCT RESIA DCT ELMUR L613 HOC DCT LUL DCT RLP DCT ROTSI DCT KOTUN DCT NINAL DCT ABNUR DCT DIMAL DCT ALESO T420 HEMEL |
| Aircraft | B738/M-SDE3FGILRWY/SB1 |
Departure
| Time | 2026-04-24 14:41 |
|---|---|
| Airport | Treviso Airport (LIPH) |
Arrival
| Time | 2026-04-24 16:31 |
|---|---|
| Airport | Birmingham Airport (EGBB) |
| Time | Latitude | Longitude | Altitude | Speed | Heading |
|---|---|---|---|---|---|
| 2026-04-24 14:14 | 45.65423 | 12.20595 | 59 ft | 0 kts | 340° |
| 2026-04-24 14:35 | 45.65414 | 12.20600 | 56 ft | 4 kts | 343° |
| 2026-04-24 14:35 | 45.65387 | 12.20607 | 53 ft | 4 kts | 3° |
| 2026-04-24 14:36 | 45.65364 | 12.20598 | 55 ft | 4 kts | 46° |
| 2026-04-24 14:36 | 45.65357 | 12.20585 | 54 ft | 1 kts | 69° |
| 2026-04-24 14:38 | 45.65357 | 12.20587 | 54 ft | 1 kts | 69° |
| 2026-04-24 14:38 | 45.65369 | 12.20628 | 56 ft | 9 kts | 69° |
| 2026-04-24 14:39 | 45.65365 | 12.20726 | 55 ft | 11 kts | 140° |
| 2026-04-24 14:39 | 45.65293 | 12.20768 | 60 ft | 11 kts | 160° |
| 2026-04-24 14:39 | 45.65234 | 12.20805 | 60 ft | 7 kts | 157° |
| 2026-04-24 14:39 | 45.65217 | 12.20786 | 60 ft | 0 kts | 250° |
| 2026-04-24 14:40 | 45.65216 | 12.20785 | 60 ft | 2 kts | 250° |
| 2026-04-24 14:40 | 45.65126 | 12.20445 | 57 ft | 74 kts | 249° |
| 2026-04-24 14:40 | 45.64861 | 12.19445 | 62 ft | 139 kts | 249° |
| 2026-04-24 14:40 | 45.64459 | 12.17933 | 271 ft | 174 kts | 248° |
| 2026-04-24 14:41 | 45.64030 | 12.16339 | 1153 ft | 168 kts | 247° |
| 2026-04-24 14:41 | 45.63591 | 12.14776 | 1878 ft | 177 kts | 245° |
| 2026-04-24 14:41 | 45.63040 | 12.13038 | 2180 ft | 205 kts | 244° |
| 2026-04-24 14:41 | 45.62416 | 12.11121 | 2630 ft | 217 kts | 244° |
| 2026-04-24 14:42 | 45.61782 | 12.09157 | 3366 ft | 219 kts | 244° |
| 2026-04-24 14:42 | 45.61129 | 12.07143 | 3930 ft | 233 kts | 245° |
| 2026-04-24 14:42 | 45.60407 | 12.04927 | 4222 ft | 257 kts | 245° |
| 2026-04-24 14:42 | 45.59648 | 12.02597 | 5001 ft | 261 kts | 246° |
| 2026-04-24 14:43 | 45.58961 | 12.00161 | 5670 ft | 268 kts | 261° |
| 2026-04-24 14:43 | 45.59043 | 11.97526 | 6441 ft | 268 kts | 285° |
| 2026-04-24 14:43 | 45.59598 | 11.94965 | 7143 ft | 273 kts | 290° |
| 2026-04-24 14:43 | 45.60396 | 11.92496 | 7809 ft | 277 kts | 310° |
| 2026-04-24 14:44 | 45.61863 | 11.90754 | 8557 ft | 276 kts | 332° |
| 2026-04-24 14:44 | 45.63603 | 11.89560 | 9304 ft | 279 kts | 337° |
| 2026-04-24 14:44 | 45.65395 | 11.88425 | 10024 ft | 283 kts | 337° |
| 2026-04-24 14:44 | 45.67224 | 11.87258 | 10482 ft | 297 kts | 337° |
| 2026-04-24 14:45 | 45.69181 | 11.85980 | 10650 ft | 320 kts | 335° |
| 2026-04-24 14:45 | 45.71028 | 11.84080 | 11054 ft | 336 kts | 314° |
| 2026-04-24 14:45 | 45.72383 | 11.81335 | 11727 ft | 340 kts | 304° |
| 2026-04-24 14:45 | 45.73622 | 11.78448 | 12513 ft | 341 kts | 303° |
| 2026-04-24 14:46 | 45.74860 | 11.75522 | 13193 ft | 346 kts | 303° |
| 2026-04-24 14:46 | 45.76120 | 11.72559 | 13889 ft | 351 kts | 304° |
| 2026-04-24 14:46 | 45.77400 | 11.69570 | 14567 ft | 354 kts | 304° |
| 2026-04-24 14:46 | 45.78701 | 11.66558 | 15239 ft | 358 kts | 304° |
| 2026-04-24 14:47 | 45.79577 | 11.64540 | 15637 ft | 362 kts | 304° |
| 2026-04-24 14:47 | 45.81376 | 11.60403 | 16502 ft | 368 kts | 304° |
| 2026-04-24 14:47 | 45.82739 | 11.57275 | 17175 ft | 372 kts | 304° |
| 2026-04-24 14:47 | 45.84118 | 11.54112 | 17842 ft | 376 kts | 304° |
| 2026-04-24 14:48 | 45.85513 | 11.50913 | 18468 ft | 381 kts | 304° |
| 2026-04-24 14:48 | 45.86923 | 11.47679 | 19059 ft | 384 kts | 304° |
| 2026-04-24 14:48 | 45.88342 | 11.44419 | 19665 ft | 386 kts | 304° |
| 2026-04-24 14:48 | 45.89771 | 11.41133 | 20231 ft | 390 kts | 304° |
| 2026-04-24 14:49 | 45.91213 | 11.37813 | 20806 ft | 393 kts | 304° |
| 2026-04-24 14:49 | 45.92667 | 11.34460 | 21356 ft | 397 kts | 304° |
| 2026-04-24 14:49 | 45.94130 | 11.31084 | 21916 ft | 400 kts | 304° |
| 2026-04-24 14:49 | 45.95605 | 11.27675 | 22457 ft | 403 kts | 304° |
| 2026-04-24 14:50 | 45.97091 | 11.24237 | 22972 ft | 408 kts | 304° |
| 2026-04-24 14:50 | 45.98593 | 11.20760 | 23508 ft | 411 kts | 304° |
| 2026-04-24 14:50 | 46.00107 | 11.17249 | 24004 ft | 414 kts | 304° |
| 2026-04-24 14:50 | 46.01627 | 11.13720 | 24451 ft | 417 kts | 304° |
| 2026-04-24 14:51 | 46.03156 | 11.10165 | 24879 ft | 419 kts | 304° |
| 2026-04-24 14:51 | 46.04696 | 11.06580 | 25323 ft | 422 kts | 304° |
| 2026-04-24 14:51 | 46.06241 | 11.02978 | 25758 ft | 425 kts | 304° |
| 2026-04-24 14:51 | 46.07796 | 10.99348 | 26194 ft | 427 kts | 304° |
| 2026-04-24 14:52 | 46.09360 | 10.95694 | 26613 ft | 430 kts | 304° |
| 2026-04-24 14:52 | 46.10931 | 10.92016 | 27020 ft | 432 kts | 304° |
| 2026-04-24 14:52 | 46.12510 | 10.88317 | 27419 ft | 435 kts | 304° |
| 2026-04-24 14:52 | 46.14076 | 10.84643 | 27799 ft | 438 kts | 304° |
| 2026-04-24 14:53 | 46.15674 | 10.80889 | 28180 ft | 440 kts | 304° |
| 2026-04-24 14:53 | 46.17278 | 10.77114 | 28516 ft | 443 kts | 304° |
| 2026-04-24 14:53 | 46.18896 | 10.73302 | 28859 ft | 446 kts | 304° |
| 2026-04-24 14:53 | 46.20520 | 10.69471 | 29224 ft | 448 kts | 304° |
| 2026-04-24 14:54 | 46.22148 | 10.65624 | 29564 ft | 451 kts | 304° |
| 2026-04-24 14:54 | 46.23785 | 10.61750 | 29908 ft | 453 kts | 304° |
| 2026-04-24 14:54 | 46.25429 | 10.57859 | 30247 ft | 455 kts | 304° |
| 2026-04-24 14:54 | 46.27080 | 10.53941 | 30515 ft | 458 kts | 304° |
| 2026-04-24 14:55 | 46.28199 | 10.51285 | 30670 ft | 459 kts | 304° |
| 2026-04-24 14:55 | 46.30400 | 10.46048 | 31069 ft | 461 kts | 304° |
| 2026-04-24 14:55 | 46.32064 | 10.42082 | 31425 ft | 460 kts | 303° |
| 2026-04-24 14:55 | 46.33718 | 10.38133 | 31843 ft | 458 kts | 303° |
| 2026-04-24 14:56 | 46.35366 | 10.34193 | 32240 ft | 457 kts | 303° |
| 2026-04-24 14:56 | 46.37009 | 10.30263 | 32629 ft | 456 kts | 303° |
| 2026-04-24 14:56 | 46.38647 | 10.26338 | 32980 ft | 455 kts | 303° |
| 2026-04-24 14:56 | 46.40282 | 10.22415 | 33358 ft | 454 kts | 303° |
| 2026-04-24 14:57 | 46.41910 | 10.18502 | 33745 ft | 452 kts | 303° |
| 2026-04-24 14:57 | 46.43532 | 10.14599 | 34091 ft | 452 kts | 303° |
| 2026-04-24 14:57 | 46.45153 | 10.10695 | 34372 ft | 452 kts | 303° |
| 2026-04-24 14:57 | 46.46773 | 10.06787 | 34644 ft | 451 kts | 303° |
| 2026-04-24 14:58 | 46.48489 | 10.02981 | 34860 ft | 450 kts | 311° |
| 2026-04-24 14:58 | 46.50506 | 9.99516 | 35124 ft | 449 kts | 314° |
| 2026-04-24 14:58 | 46.52585 | 9.96155 | 35447 ft | 447 kts | 315° |
| 2026-04-24 14:58 | 46.54677 | 9.92819 | 35742 ft | 446 kts | 314° |
| 2026-04-24 14:59 | 46.56751 | 9.89498 | 36089 ft | 443 kts | 314° |
| 2026-04-24 14:59 | 46.58806 | 9.86177 | 36385 ft | 442 kts | 313° |
| 2026-04-24 14:59 | 46.60850 | 9.82843 | 36613 ft | 442 kts | 313° |
| 2026-04-24 14:59 | 46.62891 | 9.79491 | 36838 ft | 442 kts | 313° |
| 2026-04-24 15:00 | 46.64924 | 9.76134 | 37104 ft | 441 kts | 313° |
| 2026-04-24 15:00 | 46.66950 | 9.72781 | 37300 ft | 442 kts | 313° |
| 2026-04-24 15:00 | 46.68982 | 9.69411 | 37437 ft | 444 kts | 313° |
| 2026-04-24 15:00 | 46.70332 | 9.67171 | 37558 ft | 444 kts | 313° |
| 2026-04-24 15:01 | 46.72364 | 9.63793 | 37813 ft | 443 kts | 312° |
| 2026-04-24 15:01 | 46.74385 | 9.60432 | 38122 ft | 440 kts | 312° |
| 2026-04-24 15:01 | 46.76409 | 9.57060 | 38119 ft | 444 kts | 312° |
| 2026-04-24 15:02 | 46.80479 | 9.50273 | 38140 ft | 444 kts | 312° |
| 2026-04-24 15:02 | 46.84514 | 9.43526 | 38120 ft | 439 kts | 312° |
| 2026-04-24 15:03 | 46.88505 | 9.36835 | 38122 ft | 435 kts | 311° |
| 2026-04-24 15:03 | 46.92468 | 9.30176 | 38119 ft | 434 kts | 312° |
| 2026-04-24 15:04 | 46.96463 | 9.23447 | 38136 ft | 442 kts | 311° |
| 2026-04-24 15:04 | 47.00507 | 9.16617 | 38142 ft | 445 kts | 311° |
| 2026-04-24 15:05 | 47.04569 | 9.09740 | 38146 ft | 447 kts | 311° |
| 2026-04-24 15:05 | 47.08633 | 9.02841 | 38150 ft | 447 kts | 310° |
| 2026-04-24 15:06 | 47.12687 | 8.95943 | 38152 ft | 446 kts | 310° |
| 2026-04-24 15:06 | 47.16278 | 8.88570 | 38159 ft | 443 kts | 296° |
| 2026-04-24 15:07 | 47.18453 | 8.80137 | 38158 ft | 441 kts | 289° |
| 2026-04-24 15:07 | 47.20524 | 8.71674 | 38157 ft | 439 kts | 290° |
| 2026-04-24 15:08 | 47.22652 | 8.63282 | 38159 ft | 437 kts | 289° |
| 2026-04-24 15:08 | 47.24768 | 8.54912 | 38154 ft | 436 kts | 289° |
| 2026-04-24 15:09 | 47.26868 | 8.46556 | 38161 ft | 435 kts | 289° |
| 2026-04-24 15:09 | 47.28970 | 8.38207 | 38149 ft | 434 kts | 289° |
| 2026-04-24 15:10 | 47.31063 | 8.29862 | 38148 ft | 434 kts | 289° |
| 2026-04-24 15:10 | 47.33147 | 8.21519 | 38153 ft | 434 kts | 289° |
| 2026-04-24 15:11 | 47.35229 | 8.13156 | 38141 ft | 435 kts | 289° |
| 2026-04-24 15:11 | 47.37307 | 8.04774 | 38154 ft | 435 kts | 289° |
| 2026-04-24 15:12 | 47.39383 | 7.96373 | 38153 ft | 436 kts | 288° |
| 2026-04-24 15:12 | 47.42493 | 7.83725 | 38154 ft | 437 kts | 288° |
| 2026-04-24 15:13 | 47.44561 | 7.75280 | 38156 ft | 438 kts | 288° |
| 2026-04-24 15:13 | 47.46622 | 7.66813 | 38161 ft | 438 kts | 287° |
| 2026-04-24 15:14 | 47.48239 | 7.58148 | 38167 ft | 437 kts | 282° |
| 2026-04-24 15:14 | 47.49627 | 7.49394 | 38158 ft | 437 kts | 281° |
| 2026-04-24 15:15 | 47.51027 | 7.40641 | 38164 ft | 438 kts | 282° |
| 2026-04-24 15:15 | 47.52458 | 7.31882 | 38165 ft | 438 kts | 282° |
| 2026-04-24 15:16 | 47.53896 | 7.23127 | 38162 ft | 438 kts | 282° |
| 2026-04-24 15:16 | 47.55327 | 7.14379 | 38153 ft | 437 kts | 282° |
| 2026-04-24 15:17 | 47.56750 | 7.05636 | 38144 ft | 437 kts | 281° |
| 2026-04-24 15:17 | 47.58163 | 6.96899 | 38141 ft | 436 kts | 281° |
| 2026-04-24 15:18 | 47.59568 | 6.88168 | 38135 ft | 436 kts | 281° |
| 2026-04-24 15:18 | 47.60964 | 6.79440 | 38140 ft | 435 kts | 281° |
| 2026-04-24 15:19 | 47.62353 | 6.70714 | 38139 ft | 435 kts | 281° |
| 2026-04-24 15:19 | 47.63733 | 6.62002 | 38149 ft | 434 kts | 280° |
| 2026-04-24 15:20 | 47.65105 | 6.53291 | 38138 ft | 434 kts | 280° |
| 2026-04-24 15:20 | 47.66470 | 6.44579 | 38138 ft | 434 kts | 280° |
| 2026-04-24 15:21 | 47.67830 | 6.35860 | 38135 ft | 434 kts | 280° |
| 2026-04-24 15:21 | 47.69248 | 6.27148 | 38133 ft | 436 kts | 283° |
| 2026-04-24 15:22 | 47.71054 | 6.18549 | 38140 ft | 437 kts | 284° |
| 2026-04-24 15:23 | 47.73877 | 6.05636 | 38142 ft | 439 kts | 284° |
| 2026-04-24 15:23 | 47.76626 | 5.92653 | 38149 ft | 440 kts | 284° |
| 2026-04-24 15:25 | 47.80860 | 5.72353 | 38158 ft | 442 kts | 284° |
| 2026-04-24 15:26 | 47.85688 | 5.48972 | 38167 ft | 445 kts | 283° |
| 2026-04-24 15:27 | 47.91925 | 5.22869 | 38153 ft | 454 kts | 301° |
| 2026-04-24 15:29 | 48.04666 | 5.01747 | 38152 ft | 457 kts | 310° |
| 2026-04-24 15:31 | 48.19524 | 4.77079 | 38147 ft | 455 kts | 309° |
| 2026-04-24 15:33 | 48.36353 | 4.48813 | 38159 ft | 452 kts | 309° |
| 2026-04-24 15:34 | 48.46722 | 4.31207 | 38169 ft | 449 kts | 309° |
| 2026-04-24 15:35 | 48.57041 | 4.13574 | 38178 ft | 448 kts | 309° |
| 2026-04-24 15:36 | 48.61151 | 4.06515 | 38187 ft | 447 kts | 309° |
| 2026-04-24 15:36 | 48.67306 | 3.95911 | 38181 ft | 447 kts | 309° |
| 2026-04-24 15:37 | 48.71400 | 3.88837 | 38179 ft | 447 kts | 309° |
| 2026-04-24 15:37 | 48.75673 | 3.81998 | 38183 ft | 447 kts | 314° |
| 2026-04-24 15:38 | 48.80151 | 3.75442 | 38173 ft | 448 kts | 314° |
| 2026-04-24 15:38 | 48.84629 | 3.68887 | 38178 ft | 447 kts | 314° |
| 2026-04-24 15:39 | 48.89084 | 3.62275 | 38187 ft | 447 kts | 314° |
| 2026-04-24 15:39 | 48.93519 | 3.55636 | 38186 ft | 448 kts | 314° |
| 2026-04-24 15:40 | 48.97954 | 3.48972 | 38189 ft | 448 kts | 314° |
| 2026-04-24 15:40 | 49.02388 | 3.42292 | 38183 ft | 449 kts | 314° |
| 2026-04-24 15:41 | 49.06821 | 3.35599 | 38196 ft | 448 kts | 313° |
| 2026-04-24 15:41 | 49.11248 | 3.28897 | 38183 ft | 448 kts | 313° |
| 2026-04-24 15:42 | 49.15668 | 3.22188 | 38189 ft | 447 kts | 313° |
| 2026-04-24 15:42 | 49.20073 | 3.15483 | 38192 ft | 446 kts | 313° |
| 2026-04-24 15:43 | 49.24461 | 3.08787 | 38201 ft | 445 kts | 313° |
| 2026-04-24 15:43 | 49.28807 | 3.02138 | 38202 ft | 443 kts | 313° |
| 2026-04-24 15:44 | 49.32453 | 2.96546 | 38191 ft | 442 kts | 313° |
| 2026-04-24 15:44 | 49.37481 | 2.88814 | 38194 ft | 439 kts | 313° |
| 2026-04-24 15:45 | 49.41772 | 2.82195 | 38201 ft | 437 kts | 312° |
| 2026-04-24 15:45 | 49.46047 | 2.75585 | 38207 ft | 435 kts | 313° |
| 2026-04-24 15:46 | 49.49612 | 2.70058 | 38218 ft | 434 kts | 313° |
| 2026-04-24 15:46 | 49.53851 | 2.63470 | 38213 ft | 433 kts | 313° |
| 2026-04-24 15:47 | 49.58078 | 2.56885 | 38213 ft | 432 kts | 313° |
| 2026-04-24 15:47 | 49.62450 | 2.50560 | 38218 ft | 431 kts | 320° |
| 2026-04-24 15:48 | 49.67238 | 2.44992 | 38214 ft | 431 kts | 322° |
| 2026-04-24 15:48 | 49.72053 | 2.39488 | 38211 ft | 430 kts | 321° |
| 2026-04-24 15:49 | 49.76824 | 2.33930 | 38222 ft | 429 kts | 321° |
| 2026-04-24 15:49 | 49.81575 | 2.28328 | 38224 ft | 429 kts | 321° |
| 2026-04-24 15:50 | 49.86287 | 2.22745 | 38232 ft | 429 kts | 320° |
| 2026-04-24 15:50 | 49.91026 | 2.17116 | 38225 ft | 429 kts | 321° |
| 2026-04-24 15:51 | 49.95769 | 2.11470 | 38228 ft | 430 kts | 320° |
| 2026-04-24 15:51 | 50.00508 | 2.05816 | 38230 ft | 430 kts | 320° |
| 2026-04-24 15:52 | 50.05246 | 2.00147 | 38229 ft | 430 kts | 320° |
| 2026-04-24 15:52 | 50.09989 | 1.94459 | 38230 ft | 430 kts | 320° |
| 2026-04-24 15:53 | 50.14724 | 1.88766 | 38230 ft | 430 kts | 320° |
| 2026-04-24 15:53 | 50.19317 | 1.82809 | 38240 ft | 429 kts | 314° |
| 2026-04-24 15:54 | 50.23563 | 1.76272 | 38239 ft | 428 kts | 313° |
| 2026-04-24 15:54 | 50.27781 | 1.69703 | 38239 ft | 428 kts | 313° |
| 2026-04-24 15:55 | 50.32022 | 1.63178 | 38233 ft | 428 kts | 313° |
| 2026-04-24 15:55 | 50.36269 | 1.56672 | 38238 ft | 427 kts | 313° |
| 2026-04-24 15:56 | 50.40506 | 1.50166 | 38239 ft | 426 kts | 313° |
| 2026-04-24 15:56 | 50.44729 | 1.43663 | 38244 ft | 425 kts | 313° |
| 2026-04-24 15:57 | 50.48950 | 1.37147 | 38245 ft | 424 kts | 313° |
| 2026-04-24 15:57 | 50.52999 | 1.30435 | 38238 ft | 423 kts | 310° |
| 2026-04-24 15:58 | 50.56947 | 1.23613 | 38251 ft | 422 kts | 310° |
| 2026-04-24 15:58 | 50.61014 | 1.16961 | 38250 ft | 421 kts | 313° |
| 2026-04-24 15:59 | 50.65175 | 1.10469 | 38277 ft | 421 kts | 313° |
| 2026-04-24 15:59 | 50.69318 | 1.03956 | 38271 ft | 420 kts | 312° |
| 2026-04-24 16:00 | 50.73436 | 0.97418 | 38278 ft | 420 kts | 312° |
| 2026-04-24 16:00 | 50.77538 | 0.90873 | 38266 ft | 419 kts | 312° |
| 2026-04-24 16:01 | 50.81634 | 0.84323 | 38264 ft | 419 kts | 312° |
| 2026-04-24 16:01 | 50.85726 | 0.77764 | 38264 ft | 419 kts | 312° |
| 2026-04-24 16:02 | 50.89827 | 0.71215 | 38277 ft | 419 kts | 312° |
| 2026-04-24 16:02 | 50.93906 | 0.64703 | 38271 ft | 418 kts | 312° |
| 2026-04-24 16:03 | 50.95926 | 0.61471 | 38257 ft | 406 kts | 312° |
| 2026-04-24 16:03 | 50.97878 | 0.58335 | 38268 ft | 392 kts | 311° |
| 2026-04-24 16:03 | 51.01624 | 0.52217 | 38298 ft | 386 kts | 311° |
| 2026-04-24 16:04 | 51.05412 | 0.46011 | 38306 ft | 396 kts | 311° |
| 2026-04-24 16:04 | 51.09341 | 0.39755 | 38301 ft | 403 kts | 313° |
| 2026-04-24 16:05 | 51.15473 | 0.30522 | 38293 ft | 403 kts | 313° |
| 2026-04-24 16:06 | 51.19477 | 0.24441 | 37537 ft | 398 kts | 313° |
| 2026-04-24 16:06 | 51.21494 | 0.21350 | 36680 ft | 406 kts | 313° |
| 2026-04-24 16:06 | 51.25585 | 0.15072 | 35692 ft | 405 kts | 313° |
| 2026-04-24 16:07 | 51.27601 | 0.11978 | 35378 ft | 400 kts | 313° |
| 2026-04-24 16:07 | 51.29597 | 0.08908 | 35032 ft | 396 kts | 313° |
| 2026-04-24 16:07 | 51.33642 | 0.02979 | 34264 ft | 395 kts | 320° |
| 2026-04-24 16:08 | 51.35964 | 0.00619 | 33883 ft | 394 kts | 325° |
| 2026-04-24 16:08 | 51.40655 | -0.03744 | 33147 ft | 387 kts | 326° |
| 2026-04-24 16:09 | 51.45302 | -0.08094 | 32356 ft | 382 kts | 325° |
| 2026-04-24 16:09 | 51.47576 | -0.10248 | 32006 ft | 378 kts | 325° |
| 2026-04-24 16:09 | 51.49825 | -0.12387 | 31599 ft | 372 kts | 325° |
| 2026-04-24 16:09 | 51.52035 | -0.14496 | 31080 ft | 369 kts | 324° |
| 2026-04-24 16:10 | 51.58558 | -0.20744 | 29556 ft | 359 kts | 324° |
| 2026-04-24 16:11 | 51.62797 | -0.24813 | 28498 ft | 352 kts | 324° |
| 2026-04-24 16:11 | 51.64896 | -0.26831 | 27909 ft | 350 kts | 324° |
| 2026-04-24 16:11 | 51.66977 | -0.28832 | 27374 ft | 348 kts | 324° |
| 2026-04-24 16:12 | 51.71092 | -0.32768 | 26259 ft | 341 kts | 324° |
| 2026-04-24 16:12 | 51.73130 | -0.34719 | 25682 ft | 339 kts | 324° |
| 2026-04-24 16:12 | 51.77157 | -0.38583 | 24592 ft | 334 kts | 324° |
| 2026-04-24 16:13 | 51.79175 | -0.40522 | 24028 ft | 332 kts | 323° |
| 2026-04-24 16:13 | 51.83087 | -0.44312 | 22804 ft | 330 kts | 324° |
| 2026-04-24 16:14 | 51.87016 | -0.48160 | 21496 ft | 330 kts | 325° |
| 2026-04-24 16:14 | 51.88970 | -0.50073 | 21057 ft | 325 kts | 326° |
| 2026-04-24 16:14 | 51.92801 | -0.53827 | 20457 ft | 324 kts | 326° |
| 2026-04-24 16:15 | 51.94114 | -0.55117 | 20264 ft | 328 kts | 326° |
| 2026-04-24 16:15 | 51.98707 | -0.59610 | 19568 ft | 332 kts | 327° |
| 2026-04-24 16:16 | 52.02668 | -0.63484 | 18989 ft | 333 kts | 327° |
| 2026-04-24 16:16 | 52.04634 | -0.65465 | 18696 ft | 332 kts | 321° |
| 2026-04-24 16:17 | 52.09106 | -0.73945 | 17791 ft | 329 kts | 306° |
| 2026-04-24 16:17 | 52.11857 | -0.79854 | 17302 ft | 326 kts | 306° |
| 2026-04-24 16:18 | 52.14570 | -0.85735 | 16867 ft | 323 kts | 305° |
| 2026-04-24 16:18 | 52.17378 | -0.91811 | 16551 ft | 347 kts | 305° |
| 2026-04-24 16:18 | 52.18842 | -0.94975 | 16485 ft | 350 kts | 305° |
| 2026-04-24 16:19 | 52.21744 | -1.01253 | 16034 ft | 346 kts | 306° |
| 2026-04-24 16:19 | 52.23183 | -1.04408 | 15788 ft | 351 kts | 305° |
| 2026-04-24 16:20 | 52.26131 | -1.10899 | 15312 ft | 359 kts | 305° |
| 2026-04-24 16:20 | 52.29099 | -1.17425 | 14823 ft | 356 kts | 306° |
| 2026-04-24 16:20 | 52.30568 | -1.20667 | 14579 ft | 354 kts | 306° |
| 2026-04-24 16:21 | 52.33464 | -1.27101 | 14059 ft | 349 kts | 306° |
| 2026-04-24 16:21 | 52.34897 | -1.30304 | 13613 ft | 348 kts | 306° |
| 2026-04-24 16:21 | 52.36321 | -1.33498 | 13129 ft | 346 kts | 305° |
| 2026-04-24 16:22 | 52.37734 | -1.36672 | 12677 ft | 345 kts | 306° |
| 2026-04-24 16:22 | 52.40531 | -1.42995 | 11745 ft | 338 kts | 305° |
| 2026-04-24 16:22 | 52.41927 | -1.46030 | 11285 ft | 330 kts | 312° |
| 2026-04-24 16:23 | 52.43585 | -1.48570 | 10806 ft | 322 kts | 319° |
| 2026-04-24 16:23 | 52.45284 | -1.50908 | 10317 ft | 316 kts | 320° |
| 2026-04-24 16:23 | 52.46964 | -1.53188 | 9812 ft | 311 kts | 320° |
| 2026-04-24 16:24 | 52.50251 | -1.57643 | 8778 ft | 302 kts | 320° |
| 2026-04-24 16:24 | 52.51865 | -1.59836 | 8182 ft | 302 kts | 320° |
| 2026-04-24 16:24 | 52.53481 | -1.62037 | 7596 ft | 301 kts | 320° |
| 2026-04-24 16:24 | 52.55089 | -1.64234 | 7020 ft | 301 kts | 320° |
| 2026-04-24 16:25 | 52.56696 | -1.66439 | 6429 ft | 300 kts | 320° |
| 2026-04-24 16:25 | 52.58272 | -1.68615 | 6053 ft | 292 kts | 320° |
| 2026-04-24 16:25 | 52.59802 | -1.70744 | 5672 ft | 285 kts | 320° |
| 2026-04-24 16:26 | 52.62749 | -1.74886 | 4917 ft | 274 kts | 320° |
| 2026-04-24 16:26 | 52.63957 | -1.77231 | 4578 ft | 268 kts | 294° |
| 2026-04-24 16:26 | 52.63399 | -1.82677 | 4086 ft | 240 kts | 223° |
| 2026-04-24 16:27 | 52.62218 | -1.84483 | 3863 ft | 226 kts | 220° |
| 2026-04-24 16:27 | 52.61079 | -1.86192 | 3523 ft | 218 kts | 220° |
| 2026-04-24 16:27 | 52.59865 | -1.87538 | 3222 ft | 205 kts | 198° |
| 2026-04-24 16:27 | 52.58515 | -1.87968 | 3079 ft | 192 kts | 182° |
| 2026-04-24 16:28 | 52.57263 | -1.87657 | 2860 ft | 178 kts | 147° |
| 2026-04-24 16:28 | 52.56561 | -1.86976 | 2745 ft | 176 kts | 147° |
| 2026-04-24 16:28 | 52.54437 | -1.84868 | 2261 ft | 179 kts | 145° |
| 2026-04-24 16:29 | 52.53409 | -1.83739 | 2025 ft | 176 kts | 144° |
| 2026-04-24 16:29 | 52.52402 | -1.82619 | 1781 ft | 174 kts | 143° |
| 2026-04-24 16:29 | 52.50502 | -1.80503 | 1357 ft | 154 kts | 143° |
| 2026-04-24 16:30 | 52.48773 | -1.78577 | 929 ft | 148 kts | 144° |
| 2026-04-24 16:30 | 52.47933 | -1.77638 | 743 ft | 145 kts | 144° |
| 2026-04-24 16:30 | 52.47104 | -1.76713 | 558 ft | 143 kts | 144° |
| 2026-04-24 16:31 | 52.46288 | -1.75803 | 354 ft | 140 kts | 145° |
| 2026-04-24 16:31 | 52.45571 | -1.75007 | 322 ft | 97 kts | 146° |
| 2026-04-24 16:31 | 52.45199 | -1.74594 | 328 ft | 41 kts | 146° |
| 2026-04-24 16:31 | 52.45036 | -1.74412 | 326 ft | 20 kts | 146° |
| 2026-04-24 16:32 | 52.44946 | -1.74298 | 326 ft | 12 kts | 117° |
| 2026-04-24 16:32 | 52.44957 | -1.74179 | 324 ft | 11 kts | 75° |
| 2026-04-24 16:32 | 52.44976 | -1.74058 | 325 ft | 12 kts | 76° |
| 2026-04-24 16:32 | 52.45001 | -1.73917 | 322 ft | 13 kts | 60° |
| 2026-04-24 16:33 | 52.45051 | -1.73796 | 322 ft | 13 kts | 55° |
| 2026-04-24 16:33 | 52.45127 | -1.73804 | 322 ft | 12 kts | 326° |
| 2026-04-24 16:33 | 52.45198 | -1.73884 | 322 ft | 12 kts | 326° |
| 2026-04-24 16:33 | 52.45267 | -1.73960 | 322 ft | 12 kts | 326° |
| 2026-04-24 16:34 | 52.45335 | -1.73926 | 322 ft | 12 kts | 53° |
| 2026-04-24 16:34 | 52.45379 | -1.73818 | 322 ft | 11 kts | 56° |
| 2026-04-24 16:34 | 52.45423 | -1.73713 | 321 ft | 11 kts | 56° |
| 2026-04-24 16:34 | 52.45465 | -1.73610 | 322 ft | 11 kts | 56° |
| 2026-04-24 16:35 | 52.45505 | -1.73515 | 322 ft | 7 kts | 55° |
| 2026-04-24 16:35 | 52.45491 | -1.73463 | 321 ft | 6 kts | 138° |
| 2026-04-24 16:35 | 52.45461 | -1.73428 | 322 ft | 4 kts | 146° |
| 2026-04-24 16:35 | 52.45453 | -1.73420 | 322 ft | 0 kts | 146° |